createdAt,value
2017-10-01T00:02:01.719Z,4.47
2017-10-01T00:04:30.597Z,5.27
2017-10-01T00:06:59.446Z,3.87
2017-10-01T00:09:28.316Z,4.20
2017-10-01T00:11:57.252Z,3.57
2017-10-01T00:14:26.139Z,3.80
2017-10-01T00:16:54.991Z,4.00
2017-10-01T00:19:23.861Z,3.60
2017-10-01T00:21:52.713Z,3.93
2017-10-01T00:24:21.611Z,3.53
2017-10-01T00:26:50.467Z,6.47
2017-10-01T00:29:19.332Z,4.43
2017-10-01T00:31:48.193Z,3.90
2017-10-01T00:34:17.046Z,3.70
2017-10-01T00:36:45.906Z,3.37
2017-10-01T00:39:14.775Z,3.43
2017-10-01T00:41:43.665Z,4.03
2017-10-01T00:44:12.527Z,3.50
2017-10-01T00:46:41.424Z,4.57
2017-10-01T00:49:10.269Z,4.10
2017-10-01T00:51:39.122Z,3.80
2017-10-01T00:54:08.023Z,3.33
2017-10-01T00:56:36.885Z,4.80
2017-10-01T00:59:05.766Z,3.23
2017-10-01T01:01:34.642Z,4.13
2017-10-01T01:04:03.482Z,3.90
2017-10-01T01:06:32.362Z,3.70
2017-10-01T01:09:01.207Z,4.10
2017-10-01T01:11:30.255Z,3.80
2017-10-01T01:13:59.107Z,3.30
2017-10-01T01:16:27.966Z,3.50
2017-10-01T01:18:56.839Z,3.27
2017-10-01T01:21:25.696Z,3.30
2017-10-01T01:23:54.572Z,3.00
2017-10-01T01:26:23.471Z,3.30
2017-10-01T01:28:52.339Z,2.70
2017-10-01T01:31:21.206Z,2.47
2017-10-01T01:33:50.095Z,2.73
2017-10-01T01:36:18.986Z,2.23
2017-10-01T01:38:47.834Z,3.00
2017-10-01T01:41:16.725Z,3.10
2017-10-01T01:43:45.589Z,2.77
2017-10-01T01:46:14.748Z,2.90
2017-10-01T01:48:43.615Z,3.03
2017-10-01T01:51:12.467Z,2.73
2017-10-01T01:53:41.347Z,2.80
2017-10-01T01:56:10.212Z,3.10
2017-10-01T01:58:39.083Z,2.83
2017-10-01T02:01:07.944Z,3.37
2017-10-01T02:03:36.809Z,2.93
2017-10-01T02:06:05.679Z,3.20
2017-10-01T02:08:34.561Z,3.00
2017-10-01T02:11:03.452Z,3.00
2017-10-01T02:13:32.306Z,4.03
2017-10-01T02:16:01.252Z,3.63
2017-10-01T02:18:30.113Z,4.23
2017-10-01T02:20:58.964Z,4.00
2017-10-01T02:23:27.827Z,3.50
2017-10-01T02:25:56.671Z,3.80
2017-10-01T02:28:25.717Z,3.37
2017-10-01T02:30:54.554Z,3.30
2017-10-01T02:33:23.423Z,3.07
2017-10-01T02:35:52.313Z,3.77
2017-10-01T02:38:21.169Z,3.03
2017-10-01T02:40:50.271Z,3.10
2017-10-01T02:43:19.125Z,2.90
2017-10-01T02:45:47.974Z,2.60
2017-10-01T02:48:16.906Z,2.80
2017-10-01T02:50:45.760Z,2.80
2017-10-01T02:53:14.621Z,3.23
2017-10-01T02:55:43.475Z,2.40
2017-10-01T02:58:12.583Z,2.43
2017-10-01T03:00:41.453Z,2.70
2017-10-01T03:03:10.329Z,3.10
2017-10-01T03:05:39.199Z,2.30
2017-10-01T03:08:08.054Z,2.30
2017-10-01T03:10:36.947Z,2.37
2017-10-01T03:13:05.855Z,2.17
2017-10-01T03:15:34.729Z,2.43
2017-10-01T03:18:03.593Z,1.97
2017-10-01T03:20:32.454Z,1.90
2017-10-01T03:23:01.334Z,1.53
2017-10-01T03:25:30.253Z,2.20
2017-10-01T03:27:59.131Z,2.43
2017-10-01T03:30:27.983Z,2.93
2017-10-01T03:32:56.830Z,2.10
2017-10-01T03:35:25.747Z,2.47
2017-10-01T03:37:54.617Z,2.90
2017-10-01T03:40:23.520Z,3.20
2017-10-01T03:42:52.386Z,2.73
2017-10-01T03:45:21.378Z,2.33
2017-10-01T03:47:50.247Z,3.00
2017-10-01T03:50:19.102Z,3.13
2017-10-01T03:52:47.969Z,2.93
2017-10-01T03:55:16.844Z,3.40
2017-10-01T03:57:45.761Z,2.50
2017-10-01T04:00:14.619Z,2.90
2017-10-01T04:02:43.471Z,2.87
2017-10-01T04:05:12.361Z,2.93
2017-10-01T04:07:41.217Z,2.80
2017-10-01T04:10:10.098Z,2.87
2017-10-01T04:12:38.982Z,3.30
2017-10-01T04:15:07.838Z,2.57
2017-10-01T04:17:36.693Z,2.90
2017-10-01T04:20:05.540Z,2.83
2017-10-01T04:22:34.462Z,2.80
2017-10-01T04:25:03.437Z,3.77
2017-10-01T04:27:32.300Z,4.00
2017-10-01T04:30:01.203Z,2.97
2017-10-01T04:32:30.057Z,3.47
2017-10-01T04:34:58.922Z,2.87
2017-10-01T04:37:27.776Z,3.37
2017-10-01T04:39:56.650Z,3.43
2017-10-01T04:42:25.495Z,6.40
2017-10-01T04:44:54.336Z,7.63
2017-10-01T04:47:23.216Z,4.30
2017-10-01T04:49:52.089Z,3.70
2017-10-01T04:52:20.991Z,3.53
2017-10-01T04:54:49.834Z,3.30
2017-10-01T04:57:18.675Z,3.00
2017-10-01T04:59:47.531Z,2.80
2017-10-01T05:02:16.391Z,3.00
2017-10-01T05:04:45.269Z,2.23
2017-10-01T05:07:14.115Z,2.10
2017-10-01T05:09:42.987Z,2.20
2017-10-01T05:12:11.829Z,2.70
2017-10-01T05:14:40.700Z,2.60
2017-10-01T05:17:09.590Z,2.23
2017-10-01T05:19:38.462Z,3.10
2017-10-01T05:22:07.353Z,3.00
2017-10-01T05:24:36.204Z,2.70
2017-10-01T05:27:05.054Z,2.13
2017-10-01T05:29:33.921Z,2.20
2017-10-01T05:32:02.792Z,2.10
2017-10-01T05:34:31.650Z,2.73
2017-10-01T05:37:00.500Z,2.50
2017-10-01T05:39:29.382Z,2.70
2017-10-01T05:41:58.251Z,2.87
2017-10-01T05:44:27.092Z,2.70
2017-10-01T05:46:55.972Z,3.57
2017-10-01T05:49:24.818Z,2.90
2017-10-01T05:51:53.682Z,3.23
2017-10-01T05:54:22.573Z,3.23
2017-10-01T05:56:51.445Z,3.80
2017-10-01T05:59:20.317Z,3.20
2017-10-01T06:01:49.169Z,3.70
2017-10-01T06:04:18.058Z,3.70
2017-10-01T06:06:46.922Z,3.50
2017-10-01T06:09:15.804Z,3.00
2017-10-01T06:11:44.649Z,3.53
2017-10-01T06:14:13.506Z,3.50
2017-10-01T06:16:42.342Z,3.30
2017-10-01T06:19:11.209Z,3.17
2017-10-01T06:21:40.059Z,3.50
2017-10-01T06:24:08.915Z,3.47
2017-10-01T06:26:37.801Z,3.30
2017-10-01T06:29:06.666Z,3.70
2017-10-01T06:31:35.728Z,3.63
2017-10-01T06:34:04.621Z,4.00
2017-10-01T06:36:33.481Z,4.20
2017-10-01T06:39:02.335Z,3.57
2017-10-01T06:41:31.166Z,4.23
2017-10-01T06:44:00.030Z,4.30
2017-10-01T06:46:28.875Z,3.97
2017-10-01T06:48:57.955Z,4.50
2017-10-01T06:51:26.817Z,5.00
2017-10-01T06:53:55.671Z,5.17
2017-10-01T06:56:24.542Z,4.30
2017-10-01T06:58:53.399Z,4.00
2017-10-01T07:01:22.276Z,5.07
2017-10-01T07:03:51.125Z,5.20
2017-10-01T07:06:20.014Z,5.13
2017-10-01T07:08:48.878Z,5.10
2017-10-01T07:11:17.748Z,4.33
2017-10-01T07:13:46.597Z,5.00
2017-10-01T07:16:15.460Z,4.75
2017-10-01T07:18:44.351Z,6.00
2017-10-01T07:21:13.229Z,4.80
2017-10-01T07:23:42.091Z,6.13
2017-10-01T07:26:10.968Z,6.27
2017-10-01T07:28:39.816Z,5.93
2017-10-01T07:31:08.710Z,5.90
2017-10-01T07:33:37.597Z,5.40
2017-10-01T07:36:06.442Z,5.87
2017-10-01T07:38:35.323Z,6.37
2017-10-01T07:41:04.167Z,6.57
2017-10-01T07:43:33.070Z,5.73
2017-10-01T07:46:01.944Z,7.30
2017-10-01T07:48:30.788Z,7.90
2017-10-01T07:50:59.654Z,7.40
2017-10-01T07:53:28.512Z,6.67
2017-10-01T07:55:57.374Z,7.20
2017-10-01T07:58:26.234Z,7.00
2017-10-01T08:00:55.101Z,6.80
2017-10-01T08:03:23.995Z,6.30
2017-10-01T08:05:52.864Z,7.70
2017-10-01T08:08:21.731Z,7.10
2017-10-01T08:10:50.636Z,6.93
2017-10-01T08:13:20.531Z,8.27
2017-10-01T08:15:49.411Z,8.80
2017-10-01T08:18:18.414Z,8.87
2017-10-01T08:20:47.336Z,8.93
2017-10-01T08:23:16.228Z,8.13
2017-10-01T08:25:45.086Z,9.27
2017-10-01T08:28:13.944Z,8.63
2017-10-01T08:30:42.882Z,8.50
2017-10-01T08:33:11.738Z,9.23
2017-10-01T08:35:40.599Z,9.30
2017-10-01T08:38:09.468Z,9.73
2017-10-01T08:40:38.349Z,8.10
2017-10-01T08:43:07.219Z,8.93
2017-10-01T08:45:36.073Z,9.03
2017-10-01T08:48:04.967Z,11.03
2017-10-01T08:50:33.822Z,12.80
2017-10-01T08:53:02.681Z,10.93
2017-10-01T08:55:31.577Z,15.00
2017-10-01T08:58:00.428Z,14.77
2017-10-01T09:00:29.350Z,15.10
2017-10-01T09:02:58.210Z,15.43
2017-10-01T09:05:27.072Z,15.80
2017-10-01T09:07:55.964Z,14.33
2017-10-01T09:10:24.842Z,14.00
2017-10-01T09:12:53.801Z,14.10
2017-10-01T09:15:23.558Z,12.50
2017-10-01T09:17:53.042Z,13.07
2017-10-01T09:20:21.998Z,14.00
2017-10-01T09:22:50.885Z,14.53
2017-10-01T09:25:19.908Z,12.97
2017-10-01T09:27:48.858Z,14.43
2017-10-01T09:30:17.816Z,18.13
2017-10-01T09:32:46.754Z,15.80
2017-10-01T09:35:15.790Z,14.30
2017-10-01T09:37:44.748Z,14.50
2017-10-01T09:40:13.786Z,15.77
2017-10-01T09:42:42.836Z,16.53
2017-10-01T09:45:11.774Z,14.13
2017-10-01T09:47:40.659Z,16.30
2017-10-01T09:50:09.603Z,15.90
2017-10-01T09:52:38.528Z,16.07
2017-10-01T09:55:08.234Z,15.80
2017-10-01T09:57:37.196Z,17.13
2017-10-01T10:00:06.142Z,16.97
2017-10-01T10:02:35.326Z,17.70
2017-10-01T10:05:05.302Z,17.73
2017-10-01T10:07:34.768Z,18.33
2017-10-01T10:10:03.749Z,16.90
2017-10-01T10:12:32.666Z,16.03
2017-10-01T10:15:01.687Z,16.00
2017-10-01T10:17:30.632Z,14.90
2017-10-01T10:19:59.647Z,13.00
2017-10-01T10:22:28.688Z,13.50
2017-10-01T10:24:57.627Z,12.00
2017-10-01T10:27:26.564Z,13.90
2017-10-01T10:29:55.484Z,14.32
2017-10-01T10:32:24.513Z,12.03
2017-10-01T10:34:53.497Z,13.47
2017-10-01T10:37:22.420Z,13.40
2017-10-01T10:39:51.506Z,13.77
2017-10-01T10:42:21.411Z,16.13
2017-10-01T10:44:50.601Z,12.60
2017-10-01T10:47:19.610Z,13.60
2017-10-01T10:49:48.813Z,11.40
2017-10-01T10:52:19.252Z,13.00
2017-10-01T10:54:49.045Z,12.00
2017-10-01T10:57:18.057Z,11.70
2017-10-01T10:59:46.964Z,11.87
2017-10-01T11:02:15.842Z,11.90
2017-10-01T11:04:44.736Z,12.70
2017-10-01T11:07:13.747Z,13.40
2017-10-01T11:09:42.608Z,12.63
2017-10-01T11:12:11.479Z,12.83
2017-10-01T11:14:40.351Z,12.07
2017-10-01T11:17:09.234Z,11.00
2017-10-01T11:19:38.102Z,11.60
2017-10-01T11:22:06.952Z,9.10
2017-10-01T11:24:36.026Z,8.17
2017-10-01T11:27:04.881Z,9.97
2017-10-01T11:29:33.726Z,9.43
2017-10-01T11:32:02.696Z,9.50
2017-10-01T11:34:31.576Z,11.23
2017-10-01T11:37:00.467Z,12.50
2017-10-01T11:39:29.322Z,12.67
2017-10-01T11:41:58.194Z,14.80
2017-10-01T11:44:27.051Z,14.90
2017-10-01T11:46:55.942Z,19.57
2017-10-01T11:49:24.803Z,13.13
2017-10-01T11:51:53.671Z,14.40
2017-10-01T11:54:22.540Z,12.43
2017-10-01T11:56:52.407Z,11.53
2017-10-01T11:59:21.266Z,10.00
2017-10-01T12:01:50.155Z,10.83
2017-10-01T12:04:19.016Z,7.80
2017-10-01T12:06:47.878Z,8.80
2017-10-01T12:09:16.813Z,6.63
2017-10-01T12:11:45.682Z,6.90
2017-10-01T12:14:14.610Z,8.27
2017-10-01T12:16:43.471Z,7.17
2017-10-01T12:19:12.520Z,7.83
2017-10-01T12:21:41.373Z,7.53
2017-10-01T12:24:10.228Z,6.63
2017-10-01T12:26:39.103Z,6.10
2017-10-01T12:29:07.944Z,7.07
2017-10-01T12:31:36.824Z,7.67
2017-10-01T12:34:05.674Z,6.77
2017-10-01T12:36:34.550Z,6.90
2017-10-01T12:39:03.414Z,7.43
2017-10-01T12:41:32.330Z,9.70
2017-10-01T12:44:01.181Z,24.40
2017-10-01T12:46:30.047Z,8.73
2017-10-01T12:48:58.921Z,9.10
2017-10-01T12:51:27.778Z,9.27
2017-10-01T12:53:56.664Z,9.83
2017-10-01T12:56:25.555Z,9.47
2017-10-01T12:58:54.448Z,8.43
2017-10-01T13:01:29.182Z,8.20
2017-10-01T13:03:58.070Z,8.60
2017-10-01T13:06:26.922Z,8.33
2017-10-01T13:08:55.774Z,8.47
2017-10-01T13:11:24.639Z,8.37
2017-10-01T13:13:53.487Z,7.10
2017-10-01T13:16:22.365Z,7.73
2017-10-01T13:18:51.234Z,8.97
2017-10-01T13:21:20.114Z,6.90
2017-10-01T13:23:49.002Z,6.70
2017-10-01T13:26:17.886Z,7.73
2017-10-01T13:28:46.730Z,7.37
2017-10-01T13:31:15.593Z,12.97
2017-10-01T13:33:44.464Z,10.20
2017-10-01T13:36:13.338Z,10.00
2017-10-01T13:38:42.218Z,9.40
2017-10-01T13:41:11.079Z,23.33
2017-10-01T13:43:40.167Z,20.77
2017-10-01T13:46:09.064Z,13.03
2017-10-01T13:48:37.932Z,14.50
2017-10-01T13:51:06.816Z,11.90
2017-10-01T13:53:35.671Z,9.97
2017-10-01T13:56:04.557Z,13.63
2017-10-01T13:58:33.407Z,10.70
2017-10-01T14:01:02.277Z,10.50
2017-10-01T14:03:31.137Z,12.37
2017-10-01T14:06:00.012Z,10.33
2017-10-01T14:08:28.891Z,11.30
2017-10-01T14:10:57.743Z,9.40
2017-10-01T14:13:26.619Z,9.77
2017-10-01T14:15:55.489Z,9.60
2017-10-01T14:18:24.515Z,9.80
2017-10-01T14:20:53.424Z,9.13
2017-10-01T14:23:22.277Z,9.93
2017-10-01T14:25:51.233Z,10.93
2017-10-01T14:28:20.103Z,11.70
2017-10-01T14:30:54.887Z,17.70
2017-10-01T14:33:23.746Z,10.43
2017-10-01T14:35:52.795Z,12.27
2017-10-01T14:38:21.689Z,10.20
2017-10-01T14:40:50.607Z,9.90
2017-10-01T14:43:19.497Z,10.33
2017-10-01T14:45:48.370Z,10.90
2017-10-01T14:48:17.258Z,10.30
2017-10-01T14:50:46.148Z,10.43
2017-10-01T14:53:15.073Z,9.33
2017-10-01T14:55:44.007Z,10.20
2017-10-01T14:58:12.871Z,9.77
2017-10-01T15:00:41.815Z,10.80
2017-10-01T15:03:10.682Z,10.20
2017-10-01T15:05:39.559Z,18.37
2017-10-01T15:08:08.411Z,13.50
2017-10-01T15:10:37.283Z,16.20
2017-10-01T15:13:06.146Z,13.03
2017-10-01T15:15:35.224Z,9.13
2017-10-01T15:18:04.081Z,9.27
2017-10-01T15:20:32.934Z,9.37
2017-10-01T15:23:01.799Z,9.83
2017-10-01T15:25:30.651Z,10.20
2017-10-01T15:27:59.515Z,10.03
2017-10-01T15:30:28.370Z,9.87
2017-10-01T15:32:57.267Z,10.13
2017-10-01T15:35:26.148Z,10.40
2017-10-01T15:37:55.023Z,9.97
2017-10-01T15:40:23.886Z,11.20
2017-10-01T15:42:52.758Z,11.17
2017-10-01T15:45:21.634Z,9.47
2017-10-01T15:47:50.535Z,10.97
2017-10-01T15:50:19.446Z,8.63
2017-10-01T15:52:48.295Z,9.30
2017-10-01T15:55:17.189Z,10.30
2017-10-01T15:57:46.081Z,10.80
2017-10-01T16:00:14.967Z,8.33
2017-10-01T16:02:43.845Z,10.20
2017-10-01T16:05:12.763Z,10.73
2017-10-01T16:07:41.669Z,10.10
2017-10-01T16:10:10.623Z,9.77
2017-10-01T16:12:39.470Z,9.70
2017-10-01T16:15:08.358Z,10.00
2017-10-01T16:17:37.328Z,7.90
2017-10-01T16:20:06.198Z,9.03
2017-10-01T16:22:35.078Z,9.23
2017-10-01T16:25:03.942Z,10.60
2017-10-01T16:27:32.815Z,9.40
2017-10-01T16:30:01.698Z,9.77
2017-10-01T16:32:30.571Z,10.17
2017-10-01T16:34:59.529Z,9.33
2017-10-01T16:37:28.404Z,9.30
2017-10-01T16:39:57.336Z,13.27
2017-10-01T16:42:26.248Z,13.37
2017-10-01T16:44:55.106Z,9.40
2017-10-01T16:47:23.973Z,10.10
2017-10-01T16:49:52.848Z,9.13
2017-10-01T16:52:22.007Z,10.30
2017-10-01T16:54:51.018Z,10.93
2017-10-01T16:57:20.388Z,8.70
2017-10-01T16:59:49.295Z,8.90
2017-10-01T17:02:18.386Z,9.47
2017-10-01T17:04:47.419Z,16.70
2017-10-01T17:07:16.428Z,13.47
2017-10-01T17:09:45.345Z,11.53
2017-10-01T17:12:14.291Z,13.30
2017-10-01T17:14:43.349Z,15.00
2017-10-01T17:17:12.246Z,12.60
2017-10-01T17:19:41.111Z,11.20
2017-10-01T17:22:09.987Z,11.97
2017-10-01T17:24:38.840Z,11.43
2017-10-01T17:27:07.707Z,11.03
2017-10-01T17:29:36.563Z,10.90
2017-10-01T17:32:05.432Z,10.60
2017-10-01T17:34:34.291Z,10.83
2017-10-01T17:37:03.204Z,12.50
2017-10-01T17:39:32.058Z,11.80
2017-10-01T17:42:00.926Z,11.70
2017-10-01T17:44:29.956Z,11.17
2017-10-01T17:46:58.912Z,11.23
2017-10-01T17:49:27.783Z,12.40
2017-10-01T17:51:56.733Z,12.17
2017-10-01T17:54:25.681Z,13.17
2017-10-01T17:56:54.699Z,12.50
2017-10-01T17:59:23.552Z,12.23
2017-10-01T18:01:52.446Z,15.77
2017-10-01T18:04:21.331Z,20.20
2017-10-01T18:06:50.437Z,13.90
2017-10-01T18:09:19.310Z,11.67
2017-10-01T18:11:48.234Z,13.10
2017-10-01T18:14:17.098Z,13.20
2017-10-01T18:16:46.408Z,13.03
2017-10-01T18:19:15.403Z,13.53
2017-10-01T18:21:44.269Z,15.03
2017-10-01T18:24:13.194Z,14.18
2017-10-01T18:26:42.060Z,14.60
2017-10-01T18:29:11.157Z,13.90
2017-10-01T18:31:40.016Z,13.60
2017-10-01T18:34:08.862Z,13.67
2017-10-01T18:36:37.759Z,13.77
2017-10-01T18:39:06.643Z,14.37
2017-10-01T18:41:35.522Z,13.43
2017-10-01T18:44:04.390Z,18.30
2017-10-01T18:46:33.295Z,13.70
2017-10-01T18:49:02.207Z,15.30
2017-10-01T18:51:31.074Z,14.43
2017-10-01T18:54:00.015Z,14.17
2017-10-01T18:56:28.902Z,14.97
2017-10-01T18:58:57.778Z,13.63
2017-10-01T19:01:26.632Z,13.40
2017-10-01T19:03:55.503Z,12.37
2017-10-01T19:06:24.370Z,12.40
2017-10-01T19:08:53.411Z,13.43
2017-10-01T19:11:22.278Z,15.63
2017-10-01T19:13:51.150Z,16.20
2017-10-01T19:16:20.042Z,16.00
2017-10-01T19:18:48.894Z,14.93
2017-10-01T19:21:17.778Z,15.40
2017-10-01T19:23:46.638Z,13.83
2017-10-01T19:26:15.526Z,15.80
2017-10-01T19:28:44.382Z,16.17
2017-10-01T19:31:13.266Z,20.37
2017-10-01T19:33:42.122Z,17.37
2017-10-01T19:36:11.011Z,14.23
2017-10-01T19:38:39.866Z,22.00
2017-10-01T19:41:08.738Z,18.27
2017-10-01T19:43:37.620Z,17.70
2017-10-01T19:46:06.472Z,16.60
2017-10-01T19:48:35.358Z,20.20
2017-10-01T19:51:04.230Z,20.30
2017-10-01T19:53:33.159Z,19.43
2017-10-01T19:56:02.031Z,18.50
2017-10-01T19:58:31.062Z,16.60
2017-10-01T20:00:59.936Z,18.17
2017-10-01T20:03:28.786Z,20.60
2017-10-01T20:05:57.691Z,16.47
2017-10-01T20:08:26.543Z,17.20
2017-10-01T20:10:55.406Z,15.50
2017-10-01T20:13:24.277Z,17.23
2017-10-01T20:15:53.164Z,17.87
2017-10-01T20:18:22.021Z,25.80
2017-10-01T20:20:50.897Z,20.00
2017-10-01T20:23:19.754Z,21.87
2017-10-01T20:25:48.848Z,18.43
2017-10-01T20:28:17.699Z,19.30
2017-10-01T20:30:46.558Z,17.63
2017-10-01T20:33:15.436Z,18.20
2017-10-01T20:35:44.277Z,17.77
2017-10-01T20:38:13.234Z,22.60
2017-10-01T20:40:42.100Z,19.43
2017-10-01T20:43:10.970Z,16.50
2017-10-01T20:45:39.815Z,20.03
2017-10-01T20:48:08.673Z,18.30
2017-10-01T20:50:37.551Z,16.40
2017-10-01T20:53:06.420Z,24.97
2017-10-01T20:55:35.332Z,27.93
2017-10-01T20:58:04.265Z,17.33
2017-10-01T21:00:33.276Z,19.23
2017-10-01T21:03:02.138Z,16.57
2017-10-01T21:05:31.008Z,16.60
2017-10-01T21:07:59.909Z,15.77
2017-10-01T21:10:28.836Z,15.83
2017-10-01T21:12:57.716Z,19.50
2017-10-01T21:15:26.662Z,17.00
2017-10-01T21:17:55.578Z,16.83
2017-10-01T21:20:24.477Z,15.40
2017-10-01T21:22:53.375Z,15.63
2017-10-01T21:25:22.303Z,14.43
2017-10-01T21:27:51.182Z,15.80
2017-10-01T21:30:20.102Z,14.60
2017-10-01T21:32:48.984Z,14.20
2017-10-01T21:35:17.945Z,15.50
2017-10-01T21:37:47.062Z,14.70
2017-10-01T21:40:15.929Z,13.73
2017-10-01T21:42:44.805Z,14.23
2017-10-01T21:45:13.671Z,15.20
2017-10-01T21:47:42.542Z,15.47
2017-10-01T21:50:11.485Z,15.90
2017-10-01T21:52:40.407Z,15.10
2017-10-01T21:55:09.270Z,14.73
2017-10-01T21:57:38.200Z,14.63
2017-10-01T22:00:07.083Z,15.90
2017-10-01T22:02:35.964Z,14.00
2017-10-01T22:05:04.859Z,16.20
2017-10-01T22:07:33.713Z,19.60
2017-10-01T22:10:02.609Z,19.57
2017-10-01T22:12:31.506Z,17.70
2017-10-01T22:15:00.361Z,18.83
2017-10-01T22:17:29.236Z,14.87
2017-10-01T22:19:58.102Z,15.13
2017-10-01T22:22:26.965Z,16.73
2017-10-01T22:24:55.809Z,15.77
2017-10-01T22:27:24.927Z,18.07
2017-10-01T22:29:53.800Z,15.80
2017-10-01T22:32:22.678Z,17.20
2017-10-01T22:34:51.571Z,14.90
2017-10-01T22:37:20.426Z,16.20
2017-10-01T22:39:49.323Z,17.93
2017-10-01T22:42:18.170Z,18.53
2017-10-01T22:44:47.060Z,16.10
2017-10-01T22:47:15.922Z,16.60
2017-10-01T22:49:44.784Z,15.27
2017-10-01T22:52:13.678Z,15.00
2017-10-01T22:54:42.534Z,17.07
2017-10-01T22:57:11.400Z,16.10
2017-10-01T22:59:40.256Z,17.60
2017-10-01T23:02:09.131Z,18.67
2017-10-01T23:04:37.986Z,16.63
2017-10-01T23:07:06.886Z,14.97
2017-10-01T23:09:35.738Z,14.93
2017-10-01T23:12:04.594Z,16.10
2017-10-01T23:14:33.480Z,14.90
2017-10-01T23:17:02.334Z,15.03
2017-10-01T23:19:31.194Z,15.33
2017-10-01T23:22:00.043Z,17.00
2017-10-01T23:24:28.917Z,16.80
2017-10-01T23:26:57.774Z,15.17
2017-10-01T23:29:26.633Z,17.20
2017-10-01T23:31:55.480Z,15.47
2017-10-01T23:34:24.346Z,17.50
2017-10-01T23:36:53.211Z,14.73
2017-10-01T23:39:22.100Z,14.70
2017-10-01T23:41:50.954Z,16.63
2017-10-01T23:44:19.827Z,16.87
2017-10-01T23:46:48.689Z,16.67
2017-10-01T23:49:17.560Z,16.70
2017-10-01T23:51:46.412Z,16.00
2017-10-01T23:54:15.274Z,17.87
2017-10-01T23:56:44.130Z,16.40
2017-10-01T23:59:13.043Z,16.53
